createdAt,value
2023-07-26T00:02:19.930Z,18.74
2023-07-26T00:04:46.339Z,18.68
2023-07-26T00:07:12.702Z,18.67
2023-07-26T00:09:39.008Z,18.64
2023-07-26T00:12:05.863Z,18.61
2023-07-26T00:14:32.355Z,18.64
2023-07-26T00:16:58.807Z,18.60
2023-07-26T00:19:25.306Z,18.55
2023-07-26T00:21:51.721Z,18.49
2023-07-26T00:24:18.066Z,18.45
2023-07-26T00:26:44.412Z,18.45
2023-07-26T00:29:10.811Z,18.47
2023-07-26T00:31:37.380Z,18.45
2023-07-26T00:34:03.868Z,18.43
2023-07-26T00:36:30.758Z,18.43
2023-07-26T00:38:57.430Z,18.48
2023-07-26T00:41:24.073Z,18.51
2023-07-26T00:43:50.517Z,18.50
2023-07-26T00:46:17.038Z,18.53
2023-07-26T00:48:43.728Z,18.55
2023-07-26T00:51:10.531Z,18.54
2023-07-26T00:53:37.302Z,18.53
2023-07-26T00:56:03.925Z,18.55
2023-07-26T00:58:30.513Z,18.61
2023-07-26T01:00:57.920Z,18.69
2023-07-26T01:03:24.353Z,18.74
2023-07-26T01:06:25.469Z,18.80
2023-07-26T01:09:03.401Z,18.83
2023-07-26T01:11:39.371Z,18.89
2023-07-26T01:14:18.198Z,18.91
2023-07-26T01:16:45.646Z,18.96
2023-07-26T01:19:12.040Z,19.02
2023-07-26T01:21:38.544Z,19.08
2023-07-26T01:24:05.269Z,19.11
2023-07-26T01:26:31.755Z,19.14
2023-07-26T01:28:58.151Z,19.20
2023-07-26T01:31:25.573Z,19.19
2023-07-26T01:33:52.953Z,19.20
2023-07-26T01:36:24.186Z,19.24
2023-07-26T01:38:52.236Z,19.26
2023-07-26T01:41:19.371Z,19.28
2023-07-26T01:43:45.860Z,19.28
2023-07-26T01:46:13.381Z,19.28
2023-07-26T01:48:40.850Z,19.22
2023-07-26T01:51:08.096Z,19.20
2023-07-26T01:53:34.940Z,19.20
2023-07-26T01:56:01.872Z,19.13
2023-07-26T01:58:28.406Z,19.16
2023-07-26T02:00:55.272Z,19.19
2023-07-26T02:03:22.311Z,19.26
2023-07-26T02:05:49.248Z,19.27
2023-07-26T02:08:18.233Z,19.27
2023-07-26T02:10:44.896Z,19.29
2023-07-26T02:13:11.403Z,19.21
2023-07-26T02:15:37.846Z,19.13
2023-07-26T02:18:04.267Z,19.14
2023-07-26T02:20:30.736Z,19.21
2023-07-26T02:22:57.879Z,19.30
2023-07-26T02:25:24.346Z,19.36
2023-07-26T02:27:51.214Z,19.31
2023-07-26T02:30:17.706Z,19.27
2023-07-26T02:32:44.092Z,19.22
2023-07-26T02:35:10.524Z,19.24
2023-07-26T02:37:36.961Z,19.24
2023-07-26T02:40:05.186Z,19.29
2023-07-26T02:42:31.671Z,19.31
2023-07-26T02:44:59.338Z,19.30
2023-07-26T02:47:25.775Z,19.32
2023-07-26T02:49:52.180Z,19.31
2023-07-26T02:52:18.614Z,19.28
2023-07-26T02:54:45.033Z,19.28
2023-07-26T02:57:11.481Z,19.28
2023-07-26T02:59:37.888Z,19.28
2023-07-26T03:02:04.514Z,19.27
2023-07-26T03:04:30.867Z,19.27
2023-07-26T03:06:57.248Z,19.26
2023-07-26T03:09:23.654Z,19.25
2023-07-26T03:11:49.995Z,19.28
2023-07-26T03:14:16.375Z,19.30
2023-07-26T03:16:44.721Z,19.30
2023-07-26T03:19:11.478Z,19.27
2023-07-26T03:21:38.001Z,19.27
2023-07-26T03:24:04.791Z,19.26
2023-07-26T03:26:31.359Z,19.23
2023-07-26T03:28:58.027Z,19.25
2023-07-26T03:31:24.374Z,19.27
2023-07-26T03:33:50.773Z,19.26
2023-07-26T03:36:17.296Z,19.26
2023-07-26T03:38:43.786Z,19.26
2023-07-26T03:41:10.092Z,19.25
2023-07-26T03:43:36.474Z,19.25
2023-07-26T03:46:03.404Z,19.27
2023-07-26T03:48:29.806Z,19.27
2023-07-26T03:50:56.197Z,19.26
2023-07-26T03:53:22.524Z,19.25
2023-07-26T03:55:48.922Z,19.29
2023-07-26T03:58:15.251Z,19.31
2023-07-26T04:00:41.609Z,19.31
2023-07-26T04:03:08.289Z,19.30
2023-07-26T04:05:35.148Z,19.29
2023-07-26T04:08:01.561Z,19.29
2023-07-26T04:10:28.654Z,19.29
2023-07-26T04:12:55.068Z,19.33
2023-07-26T04:15:21.378Z,19.36
2023-07-26T04:17:47.932Z,19.37
2023-07-26T04:20:14.363Z,19.38
2023-07-26T04:22:40.953Z,19.36
2023-07-26T04:25:07.812Z,19.37
2023-07-26T04:27:34.179Z,19.33
2023-07-26T04:30:00.492Z,19.30
2023-07-26T04:32:26.882Z,19.25
2023-07-26T04:34:53.250Z,19.22
2023-07-26T04:37:19.614Z,19.23
2023-07-26T04:39:46.807Z,19.20
2023-07-26T04:42:13.137Z,19.19
2023-07-26T04:44:39.498Z,19.20
2023-07-26T04:47:06.060Z,19.22
2023-07-26T04:49:32.473Z,19.24
2023-07-26T04:51:58.790Z,19.27
2023-07-26T04:54:25.084Z,19.25
2023-07-26T04:56:51.657Z,19.21
2023-07-26T04:59:17.965Z,19.23
2023-07-26T05:01:44.372Z,19.26
2023-07-26T05:04:10.846Z,19.29
2023-07-26T05:06:37.524Z,19.31
2023-07-26T05:09:05.616Z,19.34
2023-07-26T05:11:32.697Z,19.38
2023-07-26T05:13:59.388Z,19.42
2023-07-26T05:16:25.836Z,19.44
2023-07-26T05:18:53.716Z,19.43
2023-07-26T05:21:19.987Z,19.47
2023-07-26T05:23:46.743Z,19.50
2023-07-26T05:26:13.261Z,19.55
2023-07-26T05:28:42.100Z,19.58
2023-07-26T05:31:08.448Z,19.60
2023-07-26T05:33:34.870Z,19.66
2023-07-26T05:36:01.373Z,19.74
2023-07-26T05:38:28.050Z,19.82
2023-07-26T05:41:03.704Z,19.93
2023-07-26T05:43:30.090Z,20.03
2023-07-26T05:45:58.060Z,20.08
2023-07-26T05:48:24.406Z,20.20
2023-07-26T05:50:50.792Z,20.31
2023-07-26T05:53:17.160Z,20.40
2023-07-26T05:55:43.583Z,20.56
2023-07-26T05:58:09.918Z,20.82
2023-07-26T06:00:36.345Z,21.18
2023-07-26T06:03:02.896Z,21.87
2023-07-26T06:05:29.825Z,22.84
2023-07-26T06:07:56.084Z,23.68
2023-07-26T06:10:22.403Z,23.90
2023-07-26T06:12:48.752Z,23.74
2023-07-26T06:15:15.196Z,23.46
2023-07-26T06:17:41.811Z,23.29
2023-07-26T06:20:11.397Z,23.23
2023-07-26T06:22:37.786Z,23.31
2023-07-26T06:25:05.718Z,23.47
2023-07-26T06:27:32.247Z,23.55
2023-07-26T06:30:04.718Z,23.52
2023-07-26T06:32:42.269Z,23.49
2023-07-26T06:35:11.841Z,23.51
2023-07-26T06:37:38.252Z,23.68
2023-07-26T06:40:06.378Z,24.14
2023-07-26T06:42:33.431Z,24.60
2023-07-26T06:44:59.884Z,24.92
2023-07-26T06:47:26.267Z,25.24
2023-07-26T06:49:52.875Z,25.18
2023-07-26T06:52:19.204Z,25.06
2023-07-26T06:54:45.744Z,25.42
2023-07-26T06:57:12.261Z,25.40
2023-07-26T06:59:38.668Z,25.16
2023-07-26T07:02:08.460Z,25.07
2023-07-26T07:04:35.631Z,24.91
2023-07-26T07:07:01.973Z,24.73
2023-07-26T07:09:29.254Z,24.62
2023-07-26T07:11:55.592Z,24.55
2023-07-26T07:14:22.892Z,24.48
2023-07-26T07:16:49.186Z,24.31
2023-07-26T07:19:15.597Z,24.05
2023-07-26T07:21:42.666Z,23.86
2023-07-26T07:24:09.011Z,23.74
2023-07-26T07:26:35.345Z,23.62
2023-07-26T07:29:01.656Z,23.46
2023-07-26T07:31:28.169Z,23.32
2023-07-26T07:33:54.509Z,23.21
2023-07-26T07:36:20.860Z,23.12
2023-07-26T07:38:47.753Z,23.11
2023-07-26T07:41:15.023Z,23.13
2023-07-26T07:43:41.405Z,23.17
2023-07-26T07:46:07.790Z,23.20
2023-07-26T07:48:34.946Z,23.16
2023-07-26T07:51:01.445Z,23.15
2023-07-26T07:53:29.885Z,23.16
2023-07-26T07:55:57.415Z,23.20
2023-07-26T07:58:23.938Z,23.29
2023-07-26T08:00:50.415Z,23.36
2023-07-26T08:03:16.787Z,23.46
2023-07-26T08:05:43.327Z,23.63
2023-07-26T08:08:09.742Z,23.79
2023-07-26T08:10:39.155Z,24.03
2023-07-26T08:13:05.609Z,24.25
2023-07-26T08:15:33.408Z,24.43
2023-07-26T08:18:00.082Z,24.73
2023-07-26T08:20:26.600Z,25.11
2023-07-26T08:22:54.173Z,25.40
2023-07-26T08:25:24.783Z,25.68
2023-07-26T08:27:51.060Z,25.92
2023-07-26T08:30:17.857Z,26.14
2023-07-26T08:32:44.202Z,26.47
2023-07-26T08:35:10.889Z,26.66
2023-07-26T08:37:37.320Z,26.95
2023-07-26T08:40:06.329Z,27.23
2023-07-26T08:42:32.817Z,27.52
2023-07-26T08:45:00.093Z,27.94
2023-07-26T08:47:27.944Z,28.14
2023-07-26T08:49:54.500Z,28.08
2023-07-26T08:52:22.156Z,27.88
2023-07-26T08:54:48.915Z,27.60
2023-07-26T08:57:19.207Z,27.31
2023-07-26T08:59:45.710Z,27.12
2023-07-26T09:02:15.715Z,27.05
2023-07-26T09:04:42.268Z,26.99
2023-07-26T09:07:08.841Z,27.00
2023-07-26T09:09:36.530Z,26.88
2023-07-26T09:12:03.231Z,26.54
2023-07-26T09:14:31.891Z,26.28
2023-07-26T09:17:00.624Z,26.08
2023-07-26T09:19:32.752Z,25.89
2023-07-26T09:22:01.730Z,25.64
2023-07-26T09:24:35.939Z,25.34
2023-07-26T09:27:12.897Z,25.00
2023-07-26T09:29:41.673Z,24.81
2023-07-26T09:32:08.568Z,24.66
2023-07-26T09:34:35.416Z,24.54
2023-07-26T09:37:02.569Z,24.41
2023-07-26T09:39:33.603Z,24.33
2023-07-26T09:42:06.240Z,24.31
2023-07-26T09:44:33.186Z,24.25
2023-07-26T09:47:00.179Z,24.11
2023-07-26T09:49:27.646Z,24.10
2023-07-26T09:54:34.837Z,24.13
2023-07-26T09:57:06.530Z,24.07
2023-07-26T09:59:36.531Z,24.07
2023-07-26T10:02:08.658Z,24.06
2023-07-26T10:04:49.660Z,24.05
2023-07-26T10:07:16.235Z,23.93
2023-07-26T10:09:47.378Z,23.84
2023-07-26T10:12:14.802Z,23.75
2023-07-26T10:14:42.367Z,23.57
2023-07-26T10:17:13.404Z,23.50
2023-07-26T10:19:41.506Z,23.38
2023-07-26T10:22:08.696Z,23.29
2023-07-26T10:24:37.364Z,23.20
2023-07-26T10:27:05.149Z,23.05
2023-07-26T10:29:31.968Z,22.94
2023-07-26T10:32:05.229Z,22.83
2023-07-26T10:34:31.907Z,22.80
2023-07-26T10:36:59.365Z,22.72
2023-07-26T10:39:33.286Z,22.65
2023-07-26T10:42:00.176Z,22.55
2023-07-26T10:44:26.551Z,22.44
2023-07-26T10:47:02.022Z,22.45
2023-07-26T10:49:30.276Z,22.46
2023-07-26T10:52:02.917Z,22.46
2023-07-26T10:54:39.721Z,22.47
2023-07-26T10:57:27.436Z,22.46
2023-07-26T11:00:06.487Z,22.43
2023-07-26T11:02:45.485Z,22.38
2023-07-26T11:05:22.937Z,22.38
2023-07-26T11:08:08.285Z,22.36
2023-07-26T11:10:37.059Z,22.35
2023-07-26T11:13:06.165Z,22.34
2023-07-26T11:16:13.478Z,22.34
2023-07-26T11:18:21.576Z,22.34
2023-07-26T11:20:51.152Z,22.28
2023-07-26T11:23:24.202Z,22.20
2023-07-26T11:25:55.097Z,22.14
2023-07-26T11:28:21.861Z,22.09
2023-07-26T11:30:59.253Z,22.03
2023-07-26T11:33:34.472Z,21.88
2023-07-26T11:36:03.575Z,21.81
2023-07-26T11:38:30.189Z,21.79
2023-07-26T11:40:57.266Z,21.66
2023-07-26T11:43:28.404Z,21.57
2023-07-26T11:45:56.540Z,21.45
2023-07-26T11:48:24.962Z,21.51
2023-07-26T11:50:55.920Z,21.42
2023-07-26T11:53:41.630Z,21.40
2023-07-26T11:56:09.892Z,21.33
2023-07-26T11:58:36.779Z,21.20
2023-07-26T12:01:04.198Z,21.14
2023-07-26T12:03:30.926Z,21.08
2023-07-26T12:05:59.795Z,21.01
2023-07-26T12:08:29.809Z,20.88
2023-07-26T12:10:56.172Z,20.59
2023-07-26T12:13:24.227Z,20.26
2023-07-26T12:15:53.436Z,19.89
2023-07-26T12:18:24.671Z,19.57
2023-07-26T12:23:24.622Z,19.21
2023-07-26T12:26:00.440Z,18.99
2023-07-26T12:28:27.294Z,18.86
2023-07-26T12:30:55.461Z,18.79
2023-07-26T12:33:23.053Z,18.54
2023-07-26T12:35:52.526Z,18.34
2023-07-26T12:38:18.939Z,18.11
2023-07-26T12:40:46.933Z,17.84
2023-07-26T12:43:30.532Z,17.66
2023-07-26T12:46:03.954Z,17.50
2023-07-26T12:48:31.490Z,17.37
2023-07-26T12:50:57.893Z,17.11
2023-07-26T12:53:25.222Z,16.99
2023-07-26T12:55:51.833Z,16.98
2023-07-26T12:58:18.408Z,16.97
2023-07-26T13:00:44.939Z,16.88
2023-07-26T13:03:11.614Z,16.98
2023-07-26T13:05:38.379Z,17.04
2023-07-26T13:08:05.024Z,16.89
2023-07-26T13:10:31.496Z,16.78
2023-07-26T13:12:57.795Z,16.71
2023-07-26T13:15:24.262Z,16.72
2023-07-26T13:17:52.981Z,16.74
2023-07-26T13:20:20.251Z,16.72
2023-07-26T13:22:47.828Z,16.63
2023-07-26T13:25:14.428Z,16.61
2023-07-26T13:27:42.232Z,16.55
2023-07-26T13:30:09.514Z,16.57
2023-07-26T13:32:36.560Z,16.61
2023-07-26T13:35:07.004Z,16.59
2023-07-26T13:37:35.135Z,16.55
2023-07-26T13:40:05.088Z,16.43
2023-07-26T13:42:35.186Z,16.36
2023-07-26T13:45:06.760Z,16.47
2023-07-26T13:47:33.481Z,16.52
2023-07-26T13:49:59.894Z,16.47
2023-07-26T13:52:26.408Z,16.43
2023-07-26T13:54:52.886Z,16.49
2023-07-26T13:57:19.333Z,16.57
2023-07-26T13:59:45.680Z,16.51
2023-07-26T14:02:12.185Z,16.44
2023-07-26T14:04:38.588Z,16.48
2023-07-26T14:07:05.686Z,16.53
2023-07-26T14:09:32.300Z,16.44
2023-07-26T14:12:00.340Z,16.54
2023-07-26T14:14:27.404Z,16.67
2023-07-26T14:16:53.830Z,16.79
2023-07-26T14:19:20.181Z,16.70
2023-07-26T14:21:46.854Z,16.64
2023-07-26T14:24:13.240Z,16.68
2023-07-26T14:26:39.579Z,16.67
2023-07-26T14:29:06.610Z,16.51
2023-07-26T14:31:33.083Z,16.54
2023-07-26T14:33:59.597Z,16.52
2023-07-26T14:36:26.037Z,16.45
2023-07-26T14:38:52.443Z,16.48
2023-07-26T14:41:20.043Z,16.52
2023-07-26T14:43:47.567Z,16.48
2023-07-26T14:46:13.964Z,16.61
2023-07-26T14:48:41.069Z,16.68
2023-07-26T14:51:07.618Z,16.62
2023-07-26T14:53:34.011Z,16.62
2023-07-26T14:56:00.391Z,16.58
2023-07-26T14:58:26.750Z,16.58
2023-07-26T15:00:53.575Z,16.58
2023-07-26T15:03:22.358Z,16.59
2023-07-26T15:05:49.090Z,16.54
2023-07-26T15:08:16.228Z,16.49
2023-07-26T15:10:42.739Z,16.39
2023-07-26T15:13:09.238Z,16.28
2023-07-26T15:15:35.693Z,16.33
2023-07-26T15:18:02.363Z,16.25
2023-07-26T15:20:28.942Z,16.25
2023-07-26T15:22:55.332Z,16.19
2023-07-26T15:25:21.641Z,16.13
2023-07-26T15:27:48.053Z,16.12
2023-07-26T15:30:14.498Z,16.14
2023-07-26T15:32:43.178Z,16.14
2023-07-26T15:35:11.505Z,16.20
2023-07-26T15:37:43.773Z,16.27
2023-07-26T15:40:10.550Z,16.33
2023-07-26T15:42:36.962Z,16.34
2023-07-26T15:45:20.276Z,16.38
2023-07-26T15:47:47.346Z,16.41
2023-07-26T15:50:15.378Z,16.40
2023-07-26T15:52:42.392Z,16.40
2023-07-26T15:55:09.451Z,16.47
2023-07-26T15:57:36.099Z,16.46
2023-07-26T16:00:02.931Z,16.43
2023-07-26T16:03:02.962Z,16.45
2023-07-26T16:10:16.916Z,16.23
2023-07-26T16:12:43.689Z,16.25
2023-07-26T16:20:09.799Z,16.13
2023-07-26T16:22:36.104Z,16.11
2023-07-26T16:25:02.939Z,16.19
2023-07-26T16:27:32.224Z,16.15
2023-07-26T16:29:58.602Z,16.14
2023-07-26T16:32:24.912Z,16.12
2023-07-26T16:34:51.331Z,16.02
2023-07-26T16:37:17.822Z,15.96
2023-07-26T16:39:44.182Z,15.84
2023-07-26T16:42:10.723Z,15.82
2023-07-26T16:44:37.212Z,15.79
2023-07-26T16:47:09.401Z,15.65
2023-07-26T16:49:38.277Z,15.71
2023-07-26T16:52:05.153Z,15.78
2023-07-26T16:54:31.589Z,15.77
2023-07-26T16:56:58.056Z,15.74
2023-07-26T16:59:26.315Z,15.69
2023-07-26T17:01:52.822Z,15.71
2023-07-26T17:04:19.594Z,15.72
2023-07-26T17:06:46.268Z,15.65
2023-07-26T17:09:12.781Z,15.60
2023-07-26T17:11:39.195Z,15.56
2023-07-26T17:14:05.703Z,15.51
2023-07-26T17:16:32.703Z,15.57
2023-07-26T17:18:59.487Z,15.49
2023-07-26T17:21:25.928Z,15.41
2023-07-26T17:23:52.365Z,15.40
2023-07-26T17:26:18.826Z,15.48
2023-07-26T17:28:46.442Z,15.56
2023-07-26T17:31:13.140Z,15.56
2023-07-26T17:33:39.539Z,15.63
2023-07-26T17:36:14.497Z,15.67
2023-07-26T17:38:41.108Z,15.66
2023-07-26T17:41:07.993Z,15.60
2023-07-26T17:43:36.319Z,15.55
2023-07-26T17:46:03.662Z,15.49
2023-07-26T17:48:34.980Z,15.50
2023-07-26T17:51:01.341Z,15.52
2023-07-26T17:53:28.937Z,15.47
2023-07-26T17:55:55.330Z,15.41
2023-07-26T17:58:21.666Z,15.43
2023-07-26T18:00:48.051Z,15.40
2023-07-26T18:03:14.648Z,15.40
2023-07-26T18:05:42.066Z,15.41
2023-07-26T18:08:08.520Z,15.33
2023-07-26T18:10:36.580Z,15.30
2023-07-26T18:13:03.782Z,15.36
2023-07-26T18:15:30.635Z,15.44
2023-07-26T18:17:57.127Z,15.42
2023-07-26T18:20:23.635Z,15.43
2023-07-26T18:22:50.048Z,15.43
2023-07-26T18:25:16.376Z,15.41
2023-07-26T18:27:43.083Z,15.33
2023-07-26T18:30:10.106Z,15.26
2023-07-26T18:32:36.597Z,15.31
2023-07-26T18:35:03.048Z,15.30
2023-07-26T18:37:31.515Z,15.27
2023-07-26T18:39:57.909Z,15.28
2023-07-26T18:42:24.311Z,15.22
2023-07-26T18:44:50.923Z,15.16
2023-07-26T18:47:17.326Z,15.21
2023-07-26T18:49:43.749Z,15.25
2023-07-26T18:52:10.481Z,15.29
2023-07-26T18:54:36.969Z,15.30
2023-07-26T18:57:03.757Z,15.31
2023-07-26T18:59:30.385Z,15.34
2023-07-26T19:01:57.150Z,15.38
2023-07-26T19:04:23.604Z,15.40
2023-07-26T19:06:50.172Z,15.42
2023-07-26T19:09:16.703Z,15.41
2023-07-26T19:11:43.115Z,15.39
2023-07-26T19:14:09.461Z,15.39
2023-07-26T19:16:36.340Z,15.38
2023-07-26T19:19:03.029Z,15.31
2023-07-26T19:21:29.401Z,15.28
2023-07-26T19:23:57.254Z,15.22
2023-07-26T19:26:24.000Z,15.18
2023-07-26T19:28:51.526Z,15.19
2023-07-26T19:31:17.999Z,15.15
2023-07-26T19:33:44.603Z,15.24
2023-07-26T19:36:11.348Z,15.30
2023-07-26T19:38:38.438Z,15.20
2023-07-26T19:41:08.947Z,15.19
2023-07-26T19:43:36.879Z,15.13
2023-07-26T19:46:06.586Z,15.11
2023-07-26T19:48:33.033Z,15.14
2023-07-26T19:51:00.925Z,15.15
2023-07-26T19:53:27.813Z,15.09
2023-07-26T19:55:54.456Z,15.06
2023-07-26T19:58:21.100Z,15.06
2023-07-26T20:00:47.551Z,15.10
2023-07-26T20:03:14.018Z,15.09
2023-07-26T20:05:46.380Z,15.11
2023-07-26T20:08:14.639Z,15.12
2023-07-26T20:10:45.250Z,15.11
2023-07-26T20:13:15.577Z,15.07
2023-07-26T20:15:42.971Z,15.02
2023-07-26T20:18:10.984Z,14.99
2023-07-26T20:20:37.519Z,15.01
2023-07-26T20:23:04.962Z,15.03
2023-07-26T20:25:32.955Z,15.04
2023-07-26T20:27:59.763Z,15.11
2023-07-26T20:30:26.962Z,15.14
2023-07-26T20:32:53.518Z,15.14
2023-07-26T20:35:19.946Z,15.23
2023-07-26T20:37:46.467Z,15.29
2023-07-26T20:40:12.867Z,15.30
2023-07-26T20:42:39.222Z,15.27
2023-07-26T20:45:08.389Z,15.16
2023-07-26T20:47:34.768Z,15.13
2023-07-26T20:50:01.201Z,15.13
2023-07-26T20:52:27.806Z,15.12
2023-07-26T20:54:54.707Z,15.18
2023-07-26T20:57:21.134Z,15.24
2023-07-26T20:59:47.523Z,15.22
2023-07-26T21:02:14.084Z,15.19
2023-07-26T21:04:40.440Z,15.17
2023-07-26T21:07:06.814Z,15.21
2023-07-26T21:09:33.157Z,15.27
2023-07-26T21:12:00.938Z,15.32
2023-07-26T21:14:27.476Z,15.32
2023-07-26T21:16:54.028Z,15.28
2023-07-26T21:19:20.773Z,15.31
2023-07-26T21:21:47.220Z,15.36
2023-07-26T21:24:13.612Z,15.38
2023-07-26T21:26:39.969Z,15.40
2023-07-26T21:29:06.317Z,15.43
2023-07-26T21:31:32.861Z,15.45
2023-07-26T21:33:59.200Z,15.49
2023-07-26T21:36:25.626Z,15.51
2023-07-26T21:38:52.012Z,15.53
2023-07-26T21:41:18.480Z,15.52
2023-07-26T21:43:45.023Z,15.55
2023-07-26T21:46:11.424Z,15.52
2023-07-26T21:48:37.891Z,15.47
2023-07-26T21:51:04.297Z,15.48
2023-07-26T21:53:30.755Z,15.49
2023-07-26T21:55:57.181Z,15.47
2023-07-26T21:58:23.561Z,15.50
2023-07-26T22:00:51.686Z,15.46
2023-07-26T22:03:18.143Z,15.43
2023-07-26T22:05:48.742Z,15.43
2023-07-26T22:08:15.800Z,15.38
2023-07-26T22:10:42.201Z,15.36
2023-07-26T22:13:10.661Z,15.31
2023-07-26T22:15:37.384Z,15.25
2023-07-26T22:18:04.087Z,15.21
2023-07-26T22:20:30.527Z,15.20
2023-07-26T22:22:56.920Z,15.19
2023-07-26T22:25:23.423Z,15.20
2023-07-26T22:27:49.897Z,15.22
2023-07-26T22:30:16.459Z,15.22
2023-07-26T22:32:42.911Z,15.23
2023-07-26T22:35:09.682Z,15.21
2023-07-26T22:37:35.953Z,15.21
2023-07-26T22:40:02.490Z,15.21
2023-07-26T22:42:33.653Z,15.20
2023-07-26T22:45:00.114Z,15.20
2023-07-26T22:47:26.868Z,15.20
2023-07-26T22:49:54.658Z,15.21
2023-07-26T22:52:22.018Z,15.22
2023-07-26T22:54:49.202Z,15.23
2023-07-26T22:57:16.272Z,15.24
2023-07-26T22:59:48.821Z,15.24
2023-07-26T23:02:16.198Z,15.23
2023-07-26T23:04:43.125Z,15.23
2023-07-26T23:07:09.503Z,15.24
2023-07-26T23:09:35.864Z,15.24
2023-07-26T23:12:02.240Z,15.23
2023-07-26T23:14:28.525Z,15.20
2023-07-26T23:16:54.893Z,15.20
2023-07-26T23:19:21.223Z,15.20
2023-07-26T23:21:47.629Z,15.22
2023-07-26T23:24:14.071Z,15.23
2023-07-26T23:26:40.414Z,15.25
2023-07-26T23:29:06.880Z,15.25
2023-07-26T23:31:34.746Z,15.25
2023-07-26T23:34:01.364Z,15.24
2023-07-26T23:36:27.776Z,15.21
2023-07-26T23:38:54.098Z,15.13
2023-07-26T23:41:22.572Z,15.04
2023-07-26T23:43:48.951Z,14.95
2023-07-26T23:46:15.986Z,14.90
2023-07-26T23:48:44.943Z,14.88
2023-07-26T23:51:11.925Z,14.91
2023-07-26T23:53:38.460Z,14.94
2023-07-26T23:56:05.153Z,14.92
2023-07-26T23:58:31.473Z,14.89
